Aurora, West Virginia
Current Conditions -  °F | °C
As of 11:05 AM on Thursday 29 Jan 2015 (Local Time) from K2G4 Reporting Station
Broken Clouds Broken Clouds  
Wind Chill: -7°   Ceiling: 11000
Heat Index: -1°   Visibility: 10mi
Dew Point: -12°   Wind: 13mph
Humidity: 44%   Direction: 150°SSE
Pressure: 29.95"   Gusts: NA
Location:  39.32°N, 79.55°W
Report Text: K2G4 291605Z AUTO 15011KT 10SM SCT090 BKN110 M01/M12 A2995 RMK AO1
Loading
Personal Weather Stations






























Interactive Weather Map New forecast layout! Learn more

10-Day Weather Forecast

Advertisements
Track Severe Weather on mobile